METAR Data
IDs: Format: Raw Decoded Include TAF

Data at: 1828 UTC 06 Jul 2020

KM54 061815Z AUTO 00000KT 10SM CLR 31/21 A2998 RMK A01
KM54 061750Z AUTO VRB03KT 10SM CLR 31/22 A2999 RMK A01
KM54 061735Z AUTO 00000KT 10SM CLR 30/22 A3000 RMK A01
KM54 061715Z AUTO 00000KT 10SM CLR 30/22 A3000 RMK A01
KM54 061650Z AUTO 00000KT 10SM CLR 29/22 A3001 RMK A01
KM54 061635Z AUTO VRB05KT 10SM CLR 28/22 A3002 RMK A01
KM54 061615Z AUTO VRB03KT 10SM CLR 28/23 A3002 RMK A01
KM54 061555Z AUTO 03005KT 10SM FEW070 27/23 A3003 RMK A01
KM54 061535Z AUTO 36006KT 10SM FEW065 27/23 A3003 RMK A01
KM54 061515Z AUTO 01004KT 10SM FEW065 FEW080 28/22 A3003 RMK A01
KM54 061455Z AUTO 00000KT 10SM SCT080 27/22 A3002 RMK A01
KM54 061435Z AUTO 33003KT 10SM FEW013 BKN080 26/23 A3002 RMK A01
KM54 061410Z AUTO 33006KT 10SM SCT013 26/23 A3002 RMK A01
KM54 061355Z AUTO 32003KT 10SM FEW011 FEW075 26/23 A3002 RMK A01
KM54 061330Z AUTO 00000KT 10SM BKN065 BKN075 BKN090 25/22 A3002 RMK A01
KM54 061315Z AUTO 00000KT 10SM BKN065 BKN080 BKN090 24/22 A3001 RMK A01
KM54 061255Z AUTO 00000KT 10SM SCT065 BKN075 BKN085 24/22 A3000 RMK A01
KM54 061235Z AUTO 00000KT 10SM BKN060 BKN075 23/22 A3000 RMK A01
KM54 061215Z AUTO 00000KT 10SM FEW060 23/22 A2999 RMK A01
KM54 061150Z AUTO 00000KT 10SM SCT065 BKN085 22/21 A2999 RMK A01
KM54 061130Z AUTO 00000KT 10SM BKN060 BKN070 22/21 A2998 RMK A01
KM54 061115Z AUTO 00000KT 10SM BKN065 22/21 A2997 RMK A01
KM54 061055Z AUTO 00000KT 10SM FEW060 22/21 A2997 RMK A01
KM54 061035Z AUTO 00000KT 9SM SCT060 21/21 A2996 RMK A01
KM54 061015Z AUTO 00000KT 10SM OVC060 22/21 A2996 RMK A01
KM54 060955Z AUTO 00000KT 10SM OVC060 22/21 A2996 RMK A01
KM54 060935Z AUTO 35003KT 10SM BKN060 OVC065 22/21 A2996 RMK A01
KM54 060915Z AUTO 00000KT 10SM BKN055 OVC065 22/21 A2995 RMK A01
KM54 060855Z AUTO 00000KT 10SM OVC055 22/21 A2994 RMK A01
KM54 060835Z AUTO 00000KT 10SM BKN060 22/21 A2994 RMK A01
KM54 060815Z AUTO 00000KT 10SM FEW060 22/21 A2993 RMK A01
KM54 060755Z AUTO 00000KT 10SM CLR 22/21 A2992 RMK A01
KM54 060735Z AUTO 00000KT 10SM FEW060 22/21 A2992 RMK A01
KM54 060715Z AUTO 00000KT 10SM FEW055 FEW065 22/21 A2992 RMK A01
KM54 060655Z AUTO 00000KT 10SM FEW060 23/21 A2993 RMK A01
KM54 060635Z AUTO 12003KT 10SM FEW043 FEW055 23/21 A2993 RMK A01
KM54 060615Z AUTO 00000KT 10SM CLR 22/21 A2993 RMK A01
KM54 060555Z AUTO 16004KT 10SM CLR 22/21 A2994 RMK A01
KM54 060535Z AUTO 00000KT 10SM CLR 22/21 A2994 RMK A01
KM54 060510Z AUTO 00000KT 10SM CLR 22/21 A2994 RMK A01
KM54 060455Z AUTO 00000KT 10SM CLR 22/21 A2994 RMK A01
KM54 060435Z AUTO 00000KT 10SM CLR 22/21 A2995 RMK A01
KM54 060415Z AUTO 00000KT 10SM FEW055 23/21 A2994 RMK A01
KM54 060355Z AUTO 00000KT 10SM FEW049 SCT060 23/21 A2995 RMK A01
KM54 060335Z AUTO 00000KT 10SM FEW055 23/21 A2996 RMK A01
KM54 060315Z AUTO 00000KT 10SM CLR 23/21 A2996 RMK A01
KM54 060255Z AUTO 00000KT 10SM CLR 23/21 A2996 RMK A01
KM54 060235Z AUTO 04003KT 10SM FEW050 23/21 A2997 RMK A01
KM54 060215Z AUTO 01004KT 9SM FEW043 BKN050 24/21 A2996 RMK A01
KM54 060155Z AUTO 01004KT 10SM BKN050 24/22 A2996 RMK A01
KM54 060135Z AUTO 32004KT 10SM CLR 24/22 A2995 RMK A01
KM54 060115Z AUTO 00000KT 10SM CLR 24/22 A2995 RMK A01
KM54 060055Z AUTO 00000KT 10SM CLR 24/22 A2994 RMK A01
KM54 060030Z AUTO 00000KT 10SM CLR 24/21 A2994 RMK A01
KM54 060015Z AUTO 21003KT 10SM CLR 24/22 A2993 RMK A01
KM54 052350Z AUTO 00000KT 10SM CLR 25/20 A2992 RMK A01
KM54 052335Z AUTO 00000KT 10SM CLR 24/21 A2991 RMK A01
KM54 052315Z AUTO 00000KT 10SM CLR 24/21 A2991 RMK A01
KM54 052255Z AUTO 00000KT 10SM CLR 24/21 A2992 RMK A01
KM54 052235Z AUTO 36005KT 9SM CLR 24/21 A2990 RMK A01
KM54 052215Z AUTO 05004KT 10SM CLR 24/22 A2991 RMK A01
KM54 052155Z AUTO 00000KT 10SM CLR 24/21 A2990 RMK A01
KM54 052135Z AUTO 34004KT 10SM FEW035 SCT065 BKN110 24/21 A2989 RMK A01
KM54 052115Z AUTO 28003KT 6SM HZ FEW035 SCT046 BKN065 24/20 A2991 RMK A01
KM54 052055Z AUTO 23010KT 8SM FEW048 FEW055 SCT090 25/21 A2993 RMK A01
KM54 052035Z AUTO VRB05KT 8SM BKN047 BKN070 BKN090 26/20 A2991 RMK A01
KM54 052015Z AUTO 10010G22KT 060V140 9SM BKN044 OVC055 26/20 A2991 RMK A01
KM54 051955Z AUTO 12013G25KT 10SM BKN043 BKN050 OVC065 30/21 A2990 RMK A01
KM54 051935Z AUTO 19004KT 10SM SCT043 BKN049 BKN070 33/23 A2989 RMK A01
KM54 051915Z AUTO 00000KT 10SM FEW040 33/23 A2991 RMK A01
KM54 051855Z AUTO 25003KT 10SM FEW039 33/24 A2991 RMK A01
KM54 051830Z AUTO VRB04KT 10SM CLR 32/23 A2992 RMK A01
KM54 051815Z AUTO 00000KT 10SM CLR 32/23 A2992 RMK A01
KM54 051755Z AUTO 20006KT 10SM CLR 32/23 A2993 RMK A01
KM54 051735Z AUTO 19005KT 10SM FEW034 32/22 A2993 RMK A01
KM54 051715Z AUTO 23004KT 10SM FEW033 FEW041 31/23 A2994 RMK A01
KM54 051655Z AUTO 15005KT 10SM CLR 31/23 A2995 RMK A01
KM54 051635Z AUTO 22005KT 10SM CLR 31/24 A2995 RMK A01
KM54 051615Z AUTO VRB05KT 10SM CLR 30/24 A2996 RMK A01
KM54 051555Z AUTO 19004KT 10SM CLR 30/24 A2996 RMK A01
KM54 051535Z AUTO 23004KT 10SM CLR 29/24 A2996 RMK A01
KM54 051515Z AUTO 24005KT 10SM CLR 29/24 A2996 RMK A01
KM54 051455Z AUTO 00000KT 10SM CLR 28/23 A2996 RMK A01
KM54 051430Z AUTO 00000KT 9SM CLR 28/23 A2996 RMK A01
KM54 051415Z AUTO 00000KT 9SM CLR 27/23 A2996 RMK A01
KM54 051355Z AUTO 00000KT 8SM CLR 26/22 A2996 RMK A01
KM54 051330Z AUTO 00000KT 7SM CLR 25/23 A2996 RMK A01
KM54 051310Z AUTO 00000KT 7SM CLR 25/22 A2996 RMK A01
KM54 051255Z AUTO 00000KT 7SM CLR 25/22 A2995 RMK A01
KM54 051235Z AUTO 00000KT 7SM CLR 24/22 A2994 RMK A01
KM54 051215Z AUTO 00000KT 7SM CLR 24/22 A2994 RMK A01
KM54 051155Z AUTO 00000KT 6SM BR CLR 23/22 A2993 RMK A01
KM54 051135Z AUTO 00000KT 6SM BR CLR 22/22 A2992 RMK A01
KM54 051115Z AUTO 00000KT 6SM BR CLR 22/21 A2992 RMK A01
KM54 051055Z AUTO 00000KT 6SM BR CLR 22/21 A2992 RMK A01
KM54 051035Z AUTO 00000KT 7SM CLR 22/21 A2991 RMK A01
KM54 051015Z AUTO 22003KT 10SM CLR 22/21 A2990 RMK A01
KM54 050950Z AUTO 00000KT 8SM CLR 22/22 A2990 RMK A01
KM54 050935Z AUTO 00000KT 7SM CLR 23/22 A2989 RMK A01
KM54 050915Z AUTO 00000KT 7SM 22/22 A2989 RMK A01
KM54 050855Z AUTO 21003KT 8SM 22/21 A2989 RMK A01
KM54 050835Z AUTO 00000KT 10SM CLR 23/22 A2989 RMK A01
KM54 050815Z AUTO 00000KT 10SM CLR 23/22 A2989 RMK A01
KM54 050755Z AUTO 24004KT 10SM FEW120 23/22 A2989 RMK A01
KM54 050735Z AUTO 00000KT 10SM SCT120 23/22 A2989 RMK A01
KM54 050715Z AUTO 00000KT 10SM SCT120 24/22 A2989 RMK A01
KM54 050655Z AUTO 00000KT 10SM BKN120 24/22 A2989 RMK A01
KM54 050635Z AUTO 00000KT 7SM OVC120 24/23 A2989 RMK A01